Green Lofoten — P3MG8 — position and weather

sailwx.info

Track history (hours):
 
Tides and Currents Weather Stations Pressure Air Temp Water Temp Dewpoint Dewpoint Depression Visibility Wind Speed Wind Dir Waves Ship Positions

Green Lofoten

Last reported at 2017-Aug-08 23:05 UTC. Time now 2017-Aug-21 00:55 UTC.
Position N 58°58' E 004°02'.
Warning: this ship's position is 12 days out of date.

Length 98 m; draft 4.5 m.

Type: Ship. MMSI: 212857000.

Date/timePositionNaut miles runAvg speedWind from/ knotsBaromVisibWave heightAir tempDewpointWater temp
2017-Aug-08 23:05N 58°58' E 004°02'114.5
2017-Aug-08 23:00N 58°57' E 004°04'714.5
2017-Aug-08 22:30N 58°52' E 004°15'714.4
2017-Aug-08 22:00N 58°48' E 004°26'914.8
2017-Aug-08 21:24N 58°42' E 004°39'614.9
2017-Aug-08 21:00N 58°38' E 004°48'714.6
2017-Aug-08 20:30N 58°34' E 004°59'714.1
2017-Aug-08 20:00N 58°29' E 005°09'713.8
2017-Aug-08 19:31N 58°25' E 005°19'714.2
2017-Aug-08 19:01N 58°20' E 005°29'714.7
2017-Aug-08 18:30N 58°16' E 005°40'714.8
2017-Aug-08 18:00N 58°11' E 005°51'714.7
2017-Aug-08 17:30N 58°06' E 006°02'714.7
2017-Aug-08 17:00N 58°01' E 006°13'715.1
2017-Aug-08 16:31N 57°57' E 006°23'714.4
2017-Aug-08 16:00N 57°55' E 006°37'715.0
2017-Aug-08 15:31N 57°55' E 006°51'714.8
2017-Aug-08 15:00N 57°54' E 007°05'815.3
2017-Aug-08 14:30N 57°54' E 007°19'815.6
2017-Aug-08 14:00N 57°54' E 007°34'815.4
2017-Aug-08 13:30N 57°53' E 007°48'815.2
2017-Aug-08 13:00N 57°53' E 008°02'714.6
2017-Aug-08 12:30N 57°53' E 008°16'2214.0
2017-Aug-08 10:57N 57°52' E 008°57'1713.8
2017-Aug-08 09:44N 57°51' E 009°28'813.5
2017-Aug-08 09:08N 57°51' E 009°44'313.3
2017-Aug-08 08:53N 57°51' E 009°50'513.3
2017-Aug-08 08:29N 57°50' E 010°00'713.3
2017-Aug-08 07:59N 57°50' E 010°13'613.4
2017-Aug-08 07:30N 57°50' E 010°24'713.2
2017-Aug-08 07:00N 57°49' E 010°37'612.9
2017-Aug-08 06:30N 57°47' E 010°48'714.6
2017-Aug-08 06:00N 57°42' E 010°58'714.4
2017-Aug-08 05:29N 57°37' E 011°08'714.3
2017-Aug-08 05:01N 57°32' E 011°17'714.1
2017-Aug-08 04:31N 57°27' E 011°27'714.4
2017-Aug-08 04:00N 57°20' E 011°31'714.4
2017-Aug-08 03:30N 57°13' E 011°36'814.6
2017-Aug-08 02:55N 57°05' E 011°40'714.2
2017-Aug-08 02:27N 56°59' E 011°44'714.0
2017-Aug-08 01:58N 56°53' E 011°49'613.8
2017-Aug-08 01:30N 56°47' E 011°53'714.0
2017-Aug-08 01:00N 56°40' E 011°55'714.3
2017-Aug-08 00:30N 56°33' E 011°59'714.1
2017-Aug-08 00:00N 56°26' E 012°02'714.0
2017-Aug-07 23:30N 56°19' E 012°04'713.9
2017-Aug-07 23:00N 56°15' E 012°14'714.5
2017-Aug-07 22:30N 56°11' E 012°24'815.3
2017-Aug-07 22:00N 56°06' E 012°35'815.3
2017-Aug-07 21:31N 55°59' E 012°41'713.8
2017-Aug-07 21:00N 55°52' E 012°41'714.3
2017-Aug-07 20:30N 55°45' E 012°42'815.2
2017-Aug-07 20:00N 55°37' E 012°42'714.5
2017-Aug-07 19:30N 55°30' E 012°43'815.2
2017-Aug-07 19:01N 55°23' E 012°41'612.4
2017-Aug-07 18:30N 55°17' E 012°47'714.3
2017-Aug-07 18:00N 55°16' E 012°59'714.8
2017-Aug-07 17:30N 55°15' E 013°12'714.5
2017-Aug-07 17:00N 55°15' E 013°25'714.5
2017-Aug-07 16:30N 55°14' E 013°37'714.8
2017-Aug-07 16:00N 55°14' E 013°50'714.9
2017-Aug-07 15:31N 55°14' E 014°03'714.5
2017-Aug-07 15:01N 55°14' E 014°16'714.8
2017-Aug-07 14:30N 55°19' E 014°24'714.7
2017-Aug-07 14:00N 55°24' E 014°33'714.3
2017-Aug-07 13:30N 55°29' E 014°43'714.0
2017-Aug-07 13:01N 55°33' E 014°54'714.1
2017-Aug-07 12:30N 55°36' E 015°04'714.1
2017-Aug-07 12:00N 55°39' E 015°15'27413.6
2017-Aug-06 15:55N 58°53' E 021°14'512.8
2017-Aug-06 15:30N 58°57' E 021°20'612.6
2017-Aug-06 15:00N 59°02' E 021°28'612.9
2017-Aug-06 14:30N 59°07' E 021°35'713.0
2017-Aug-06 14:00N 59°12' E 021°45'713.1
2017-Aug-06 13:30N 59°16' E 021°54'713.3
2017-Aug-06 13:00N 59°20' E 022°04'713.5
2017-Aug-06 12:30N 59°25' E 022°14'713.5
2017-Aug-06 12:00N 59°29' E 022°25'713.4
2017-Aug-06 11:30N 59°32' E 022°36'713.7
2017-Aug-06 11:00N 59°34' E 022°49'713.6
2017-Aug-06 10:30N 59°35' E 023°02'713.8
2017-Aug-06 10:00N 59°37' E 023°15'713.9
2017-Aug-06 09:31N 59°39' E 023°29'714.0
2017-Aug-06 09:01N 59°41' E 023°42'714.0
2017-Aug-06 08:30N 59°43' E 023°55'713.7
2017-Aug-06 08:00N 59°45' E 024°09'713.3
2017-Aug-06 07:30N 59°46' E 024°21'713.0
2017-Aug-06 07:00N 59°48' E 024°34'713.2
2017-Aug-06 06:30N 59°49' E 024°47'713.2
2017-Aug-06 06:00N 59°50' E 024°60'713.4
2017-Aug-06 05:30N 59°52' E 025°13'713.6
2017-Aug-06 05:00N 59°53' E 025°26'713.7
2017-Aug-06 04:30N 59°54' E 025°39'713.8
2017-Aug-06 04:00N 59°56' E 025°53'713.7
2017-Aug-06 03:30N 59°58' E 026°06'713.8
2017-Aug-06 03:00N 59°59' E 026°19'714.1
2017-Aug-06 02:30N 60°01' E 026°33'714.3
2017-Aug-06 02:00N 60°01' E 026°47'714.4
2017-Aug-06 01:31N 59°59' E 027°01'714.0
2017-Aug-06 01:01N 60°03' E 027°14'714.3
2017-Aug-06 00:30N 60°07' E 027°26'714.5
2017-Aug-06 00:00N 60°10' E 027°38'713.6
2017-Aug-05 23:30N 60°11' E 027°52'714.3
2017-Aug-05 23:00N 60°09' E 028°06'714.1
2017-Aug-05 22:30N 60°07' E 028°19'714.4
2017-Aug-05 22:00N 60°03' E 028°31'714.5
2017-Aug-05 21:30N 60°03' E 028°46'714.3
2017-Aug-05 21:00N 60°02' E 028°60'713.1
2017-Aug-05 20:31N 60°02' E 029°13'711.8
2017-Aug-05 19:57N 60°02' E 029°26'6 9.4
2017-Aug-05 19:22N 60°00' E 029°37'412.0
2017-Aug-05 19:00N 59°59' E 029°45'4 7.4
2017-Aug-05 18:31N 59°57' E 029°51'510.2
2017-Aug-05 18:00N 59°55' E 030°01'5 9.0
2017-Aug-05 17:30N 59°53' E 030°09'3 5.0
2017-Aug-05 17:00N 59°54' E 030°14'0 0.8
2017-Aug-05 16:30N 59°55' E 030°14'0 0.0
2017-Aug-05 15:59N 59°55' E 030°14'0 0.0
2017-Aug-05 15:29N 59°55' E 030°14'0 0.0
2017-Aug-05 14:59N 59°55' E 030°14'0 0.0
2017-Aug-05 14:29N 59°55' E 030°14'0 0.0
2017-Aug-05 13:59N 59°55' E 030°14'0 0.0
2017-Aug-05 13:29N 59°55' E 030°14'0 0.0
2017-Aug-05 12:59N 59°55' E 030°14'0 0.0
2017-Aug-05 12:29N 59°55' E 030°14'0 0.0
2017-Aug-05 11:59N 59°55' E 030°14'0 0.0
2017-Aug-05 11:29N 59°55' E 030°14'0 0.0
2017-Aug-05 10:59N 59°55' E 030°14'0 0.0
2017-Aug-05 10:29N 59°55' E 030°14'0 0.0
2017-Aug-05 09:59N 59°55' E 030°14'0 0.0
2017-Aug-05 09:29N 59°55' E 030°14'0 0.0
2017-Aug-05 08:59N 59°55' E 030°14'0 0.0
2017-Aug-05 08:26N 59°55' E 030°14'0 0.0
2017-Aug-05 08:00N 59°55' E 030°14'0 0.0
2017-Aug-05 07:30N 59°55' E 030°14'0 0.0
2017-Aug-05 06:57N 59°55' E 030°14'0 0.0
2017-Aug-05 06:30N 59°55' E 030°14'0 0.0
2017-Aug-05 06:00N 59°55' E 030°14'0 0.0
2017-Aug-05 05:30N 59°55' E 030°14'0 0.0
2017-Aug-05 04:57N 59°55' E 030°14'0 0.0
2017-Aug-05 04:30N 59°55' E 030°14'0 0.0
2017-Aug-05 04:00N 59°55' E 030°14'0 0.0
2017-Aug-05 03:30N 59°55' E 030°14'0 0.0
2017-Aug-05 02:57N 59°55' E 030°14'0 0.0
2017-Aug-05 02:27N 59°55' E 030°14'0 0.0
2017-Aug-05 02:00N 59°55' E 030°14'0 0.0
2017-Aug-05 01:30N 59°55' E 030°14'0 0.0
2017-Aug-05 00:57N 59°55' E 030°14'0 0.0
2017-Aug-05 00:30N 59°55' E 030°14'0 0.0
2017-Aug-04 23:57N 59°55' E 030°14'0 0.0
2017-Aug-04 23:27N 59°55' E 030°14'0 0.0
2017-Aug-04 23:00N 59°55' E 030°14'0 0.0
2017-Aug-04 22:30N 59°55' E 030°14'0 0.0
2017-Aug-04 21:57N 59°55' E 030°14'0 0.0
2017-Aug-04 21:30N 59°55' E 030°14'0 0.0
2017-Aug-04 21:00N 59°55' E 030°14'0 0.0
2017-Aug-04 20:27N 59°55' E 030°14'0 0.0
2017-Aug-04 20:00N 59°55' E 030°14'0 0.0
2017-Aug-04 19:30N 59°55' E 030°14'0 0.0
2017-Aug-04 18:57N 59°55' E 030°14'0 0.0
2017-Aug-04 18:27N 59°55' E 030°14'0 0.0
2017-Aug-04 17:57N 59°55' E 030°14'0 0.0
2017-Aug-04 17:30N 59°55' E 030°14'0 0.0
2017-Aug-04 16:57N 59°55' E 030°14'0 0.0
2017-Aug-04 16:27N 59°55' E 030°14'0 0.0
2017-Aug-04 15:57N 59°55' E 030°14'0 0.0
2017-Aug-04 15:24N 59°55' E 030°14'0 0.0
2017-Aug-04 15:00N 59°55' E 030°14'0 0.0
2017-Aug-04 14:00N 59°55' E 030°14'0 0.0
2017-Aug-04 13:30N 59°55' E 030°14'0 0.0
2017-Aug-04 12:54N 59°55' E 030°14'0 0.0
2017-Aug-04 12:30N 59°55' E 030°14'0 0.0
2017-Aug-04 12:00N 59°55' E 030°14'0 0.0
2017-Aug-04 11:30N 59°55' E 030°14'0 0.0
2017-Aug-04 11:00N 59°55' E 030°14'0 0.0
2017-Aug-04 10:27N 59°55' E 030°14'0 0.0
2017-Aug-04 09:57N 59°55' E 030°14'0 0.0
2017-Aug-04 09:30N 59°55' E 030°14'0 0.0
2017-Aug-04 08:57N 59°55' E 030°14'0 0.0
2017-Aug-04 08:27N 59°55' E 030°14'0 0.0
2017-Aug-04 08:00N 59°55' E 030°14'0 0.0
2017-Aug-04 07:24N 59°55' E 030°14'0 0.0
2017-Aug-04 07:00N 59°55' E 030°14'0 0.0
2017-Aug-04 06:27N 59°55' E 030°14'0 0.0
2017-Aug-04 05:57N 59°55' E 030°14'0 0.0
2017-Aug-04 05:30N 59°55' E 030°14'0 0.0
2017-Aug-04 05:00N 59°55' E 030°14'0 0.0
2017-Aug-04 04:27N 59°55' E 030°14'0 0.0
2017-Aug-04 04:00N 59°55' E 030°14'0 0.0
2017-Aug-04 03:30N 59°55' E 030°14'0 0.0
2017-Aug-04 02:57N 59°55' E 030°14'0 0.0
2017-Aug-04 02:30N 59°55' E 030°14'0 0.0
2017-Aug-04 02:00N 59°55' E 030°14'0 0.0
2017-Aug-04 01:30N 59°55' E 030°14'0 0.0
2017-Aug-04 00:57N 59°55' E 030°14'0 0.0
2017-Aug-04 00:30N 59°55' E 030°14'0 0.0
2017-Aug-04 00:00N 59°55' E 030°14'0 0.0
2017-Aug-03 23:30N 59°55' E 030°14'0 0.0
2017-Aug-03 23:00N 59°55' E 030°14'0 0.0
2017-Aug-03 22:30N 59°55' E 030°14'0 0.0
2017-Aug-03 22:00N 59°55' E 030°14'0 0.0
2017-Aug-03 21:27N 59°55' E 030°14'0 0.0
2017-Aug-03 20:59N 59°55' E 030°14'0 0.0
2017-Aug-03 20:29N 59°55' E 030°14'0 0.0
2017-Aug-03 19:59N 59°55' E 030°14'0 0.0
2017-Aug-03 19:30N 59°55' E 030°14'0 0.0
2017-Aug-03 19:00N 59°55' E 030°14'0 0.0
2017-Aug-03 18:30N 59°55' E 030°14'0 0.0
2017-Aug-03 18:00N 59°55' E 030°14'0 0.0
2017-Aug-03 17:30N 59°55' E 030°14'0 0.0
2017-Aug-03 17:00N 59°55' E 030°14'0 0.0
2017-Aug-03 16:29N 59°55' E 030°14'0 0.0
2017-Aug-03 15:57N 59°55' E 030°14'0 0.0
2017-Aug-03 15:30N 59°55' E 030°14'0 0.0
2017-Aug-03 15:00N 59°55' E 030°14'0 0.0
2017-Aug-03 14:00N 59°55' E 030°14'0 0.0
2017-Aug-03 13:30N 59°55' E 030°14'0 0.0
2017-Aug-03 13:00N 59°55' E 030°14'0 0.0
2017-Aug-03 12:29N 59°55' E 030°14'0 0.0
2017-Aug-03 11:59N 59°55' E 030°14'0 0.0
2017-Aug-03 11:27N 59°55' E 030°14'0 0.0
2017-Aug-03 10:57N 59°55' E 030°14'0 0.0
2017-Aug-03 10:30N 59°55' E 030°14'0 0.0
2017-Aug-03 10:00N 59°55' E 030°14'0 0.0
2017-Aug-03 09:29N 59°55' E 030°14'0 0.0
2017-Aug-03 09:00N 59°55' E 030°14'0 0.0
2017-Aug-03 08:30N 59°55' E 030°14'0 0.0
2017-Aug-03 08:00N 59°55' E 030°14'0 0.0
2017-Aug-03 07:29N 59°55' E 030°14'0 0.0
2017-Aug-03 06:59N 59°55' E 030°14'0 0.0
2017-Aug-03 06:27N 59°55' E 030°14'0 0.0
2017-Aug-03 05:57N 59°55' E 030°14'0 0.0
2017-Aug-03 05:29N 59°55' E 030°14'0 0.0
2017-Aug-03 04:59N 59°55' E 030°14'0 0.0
2017-Aug-03 04:29N 59°55' E 030°14'0 0.0
2017-Aug-03 03:57N 59°55' E 030°14'0 0.0
2017-Aug-03 03:29N 59°55' E 030°14'0 0.0
2017-Aug-03 02:59N 59°55' E 030°14'0 0.0
2017-Aug-03 02:29N 59°55' E 030°14'0 0.0
2017-Aug-03 02:00N 59°55' E 030°14'0 0.0
2017-Aug-03 01:29N 59°55' E 030°14'0 0.0
2017-Aug-03 00:59N 59°55' E 030°14'0 0.0
2017-Aug-03 00:30N 59°55' E 030°14'0 0.0
2017-Aug-03 00:00N 59°55' E 030°14'0 0.0
2017-Aug-02 23:30N 59°55' E 030°14'0 0.0
2017-Aug-02 23:00N 59°55' E 030°14'0 0.0
2017-Aug-02 22:30N 59°55' E 030°14'0 0.0
2017-Aug-02 22:00N 59°55' E 030°14'0 0.0
2017-Aug-02 21:30N 59°55' E 030°14'0 0.6
2017-Aug-02 20:59N 59°55' E 030°13'0 0.2
2017-Aug-02 20:29N 59°54' E 030°13'0 0.0
2017-Aug-02 19:59N 59°54' E 030°13'0 0.0
2017-Aug-02 19:29N 59°54' E 030°13'0 0.0
2017-Aug-02 18:59N 59°54' E 030°13'0 0.0
2017-Aug-02 18:29N 59°54' E 030°13'0 0.0
2017-Aug-02 17:59N 59°54' E 030°13'0 0.0
2017-Aug-02 17:29N 59°54' E 030°13'0 0.0
2017-Aug-02 16:59N 59°54' E 030°13'0 0.0
2017-Aug-02 16:29N 59°54' E 030°13'0 0.0
2017-Aug-02 15:59N 59°54' E 030°13'0 0.0
2017-Aug-02 15:29N 59°54' E 030°13'0 0.0
2017-Aug-02 14:59N 59°54' E 030°13'0 0.0
2017-Aug-02 13:29N 59°54' E 030°13'0 0.0
2017-Aug-02 12:59N 59°54' E 030°13'0 0.0
2017-Aug-02 12:29N 59°54' E 030°13'0 0.0
2017-Aug-02 11:59N 59°54' E 030°13'0 0.0
2017-Aug-02 11:29N 59°54' E 030°13'0 0.0
2017-Aug-02 10:59N 59°54' E 030°13'0 0.0
2017-Aug-02 10:29N 59°54' E 030°13'0 0.0
2017-Aug-02 09:59N 59°54' E 030°13'0 0.0
2017-Aug-02 09:29N 59°54' E 030°13'0 0.0
2017-Aug-02 08:59N 59°54' E 030°13'0 0.0
2017-Aug-02 08:29N 59°54' E 030°13'0 0.0
2017-Aug-02 07:59N 59°54' E 030°13'0 0.0
2017-Aug-02 07:29N 59°54' E 030°13'0 0.0
2017-Aug-02 06:59N 59°54' E 030°13'0 0.0
2017-Aug-02 06:29N 59°54' E 030°13'0 0.0
2017-Aug-02 05:59N 59°54' E 030°13'  
Track history (hours):
 
Tides and Currents Weather Stations Pressure Air Temp Water Temp Dewpoint Dewpoint Depression Visibility Wind Speed Wind Dir Waves Ship Positions

Green Lofoten

Last reported at 2017-Aug-08 23:05 UTC. Time now 2017-Aug-21 00:55 UTC.
Position N 58°58' E 004°02'.
Warning: this ship's position is 12 days out of date.

Length 98 m; draft 4.5 m.

Type: Ship. MMSI: 212857000.

Date/timePositionNaut miles runAvg speedWind from/ knotsBaromVisibWave heightAir tempDewpointWater temp
2017-Aug-08 23:05N 58°58' E 004°02'114.5
2017-Aug-08 23:00N 58°57' E 004°04'714.5
2017-Aug-08 22:30N 58°52' E 004°15'714.4
2017-Aug-08 22:00N 58°48' E 004°26'914.8
2017-Aug-08 21:24N 58°42' E 004°39'614.9
2017-Aug-08 21:00N 58°38' E 004°48'714.6
2017-Aug-08 20:30N 58°34' E 004°59'714.1
2017-Aug-08 20:00N 58°29' E 005°09'713.8
2017-Aug-08 19:31N 58°25' E 005°19'714.2
2017-Aug-08 19:01N 58°20' E 005°29'714.7
2017-Aug-08 18:30N 58°16' E 005°40'714.8
2017-Aug-08 18:00N 58°11' E 005°51'714.7
2017-Aug-08 17:30N 58°06' E 006°02'714.7
2017-Aug-08 17:00N 58°01' E 006°13'715.1
2017-Aug-08 16:31N 57°57' E 006°23'714.4
2017-Aug-08 16:00N 57°55' E 006°37'715.0
2017-Aug-08 15:31N 57°55' E 006°51'714.8
2017-Aug-08 15:00N 57°54' E 007°05'815.3
2017-Aug-08 14:30N 57°54' E 007°19'815.6
2017-Aug-08 14:00N 57°54' E 007°34'815.4
2017-Aug-08 13:30N 57°53' E 007°48'815.2
2017-Aug-08 13:00N 57°53' E 008°02'714.6
2017-Aug-08 12:30N 57°53' E 008°16'2214.0
2017-Aug-08 10:57N 57°52' E 008°57'1713.8
2017-Aug-08 09:44N 57°51' E 009°28'813.5
2017-Aug-08 09:08N 57°51' E 009°44'313.3
2017-Aug-08 08:53N 57°51' E 009°50'513.3
2017-Aug-08 08:29N 57°50' E 010°00'713.3
2017-Aug-08 07:59N 57°50' E 010°13'613.4
2017-Aug-08 07:30N 57°50' E 010°24'713.2
2017-Aug-08 07:00N 57°49' E 010°37'612.9
2017-Aug-08 06:30N 57°47' E 010°48'714.6
2017-Aug-08 06:00N 57°42' E 010°58'714.4
2017-Aug-08 05:29N 57°37' E 011°08'714.3
2017-Aug-08 05:01N 57°32' E 011°17'714.1
2017-Aug-08 04:31N 57°27' E 011°27'714.4
2017-Aug-08 04:00N 57°20' E 011°31'714.4
2017-Aug-08 03:30N 57°13' E 011°36'814.6
2017-Aug-08 02:55N 57°05' E 011°40'714.2
2017-Aug-08 02:27N 56°59' E 011°44'714.0
2017-Aug-08 01:58N 56°53' E 011°49'613.8
2017-Aug-08 01:30N 56°47' E 011°53'714.0
2017-Aug-08 01:00N 56°40' E 011°55'714.3
2017-Aug-08 00:30N 56°33' E 011°59'714.1
2017-Aug-08 00:00N 56°26' E 012°02'714.0
2017-Aug-07 23:30N 56°19' E 012°04'713.9
2017-Aug-07 23:00N 56°15' E 012°14'714.5
2017-Aug-07 22:30N 56°11' E 012°24'815.3
2017-Aug-07 22:00N 56°06' E 012°35'815.3
2017-Aug-07 21:31N 55°59' E 012°41'713.8
2017-Aug-07 21:00N 55°52' E 012°41'714.3
2017-Aug-07 20:30N 55°45' E 012°42'815.2
2017-Aug-07 20:00N 55°37' E 012°42'714.5
2017-Aug-07 19:30N 55°30' E 012°43'815.2
2017-Aug-07 19:01N 55°23' E 012°41'612.4
2017-Aug-07 18:30N 55°17' E 012°47'714.3
2017-Aug-07 18:00N 55°16' E 012°59'714.8
2017-Aug-07 17:30N 55°15' E 013°12'714.5
2017-Aug-07 17:00N 55°15' E 013°25'714.5
2017-Aug-07 16:30N 55°14' E 013°37'714.8
2017-Aug-07 16:00N 55°14' E 013°50'714.9
2017-Aug-07 15:31N 55°14' E 014°03'714.5
2017-Aug-07 15:01N 55°14' E 014°16'714.8
2017-Aug-07 14:30N 55°19' E 014°24'714.7
2017-Aug-07 14:00N 55°24' E 014°33'714.3
2017-Aug-07 13:30N 55°29' E 014°43'714.0
2017-Aug-07 13:01N 55°33' E 014°54'714.1
2017-Aug-07 12:30N 55°36' E 015°04'714.1
2017-Aug-07 12:00N 55°39' E 015°15'27413.6
2017-Aug-06 15:55N 58°53' E 021°14'512.8
2017-Aug-06 15:30N 58°57' E 021°20'612.6
2017-Aug-06 15:00N 59°02' E 021°28'612.9
2017-Aug-06 14:30N 59°07' E 021°35'713.0
2017-Aug-06 14:00N 59°12' E 021°45'713.1
2017-Aug-06 13:30N 59°16' E 021°54'713.3
2017-Aug-06 13:00N 59°20' E 022°04'713.5
2017-Aug-06 12:30N 59°25' E 022°14'713.5
2017-Aug-06 12:00N 59°29' E 022°25'713.4
2017-Aug-06 11:30N 59°32' E 022°36'713.7
2017-Aug-06 11:00N 59°34' E 022°49'713.6
2017-Aug-06 10:30N 59°35' E 023°02'713.8
2017-Aug-06 10:00N 59°37' E 023°15'713.9
2017-Aug-06 09:31N 59°39' E 023°29'714.0
2017-Aug-06 09:01N 59°41' E 023°42'714.0
2017-Aug-06 08:30N 59°43' E 023°55'713.7
2017-Aug-06 08:00N 59°45' E 024°09'713.3
2017-Aug-06 07:30N 59°46' E 024°21'713.0
2017-Aug-06 07:00N 59°48' E 024°34'713.2
2017-Aug-06 06:30N 59°49' E 024°47'713.2
2017-Aug-06 06:00N 59°50' E 024°60'713.4
2017-Aug-06 05:30N 59°52' E 025°13'713.6
2017-Aug-06 05:00N 59°53' E 025°26'713.7
2017-Aug-06 04:30N 59°54' E 025°39'713.8
2017-Aug-06 04:00N 59°56' E 025°53'713.7
2017-Aug-06 03:30N 59°58' E 026°06'713.8
2017-Aug-06 03:00N 59°59' E 026°19'714.1
2017-Aug-06 02:30N 60°01' E 026°33'714.3
2017-Aug-06 02:00N 60°01' E 026°47'714.4
2017-Aug-06 01:31N 59°59' E 027°01'714.0
2017-Aug-06 01:01N 60°03' E 027°14'714.3
2017-Aug-06 00:30N 60°07' E 027°26'714.5
2017-Aug-06 00:00N 60°10' E 027°38'713.6
2017-Aug-05 23:30N 60°11' E 027°52'714.3
2017-Aug-05 23:00N 60°09' E 028°06'714.1
2017-Aug-05 22:30N 60°07' E 028°19'714.4
2017-Aug-05 22:00N 60°03' E 028°31'714.5
2017-Aug-05 21:30N 60°03' E 028°46'714.3
2017-Aug-05 21:00N 60°02' E 028°60'713.1
2017-Aug-05 20:31N 60°02' E 029°13'711.8
2017-Aug-05 19:57N 60°02' E 029°26'6 9.4
2017-Aug-05 19:22N 60°00' E 029°37'412.0
2017-Aug-05 19:00N 59°59' E 029°45'4 7.4
2017-Aug-05 18:31N 59°57' E 029°51'510.2
2017-Aug-05 18:00N 59°55' E 030°01'5 9.0
2017-Aug-05 17:30N 59°53' E 030°09'3 5.0
2017-Aug-05 17:00N 59°54' E 030°14'0 0.8
2017-Aug-05 16:30N 59°55' E 030°14'0 0.0
2017-Aug-05 15:59N 59°55' E 030°14'0 0.0
2017-Aug-05 15:29N 59°55' E 030°14'0 0.0
2017-Aug-05 14:59N 59°55' E 030°14'0 0.0
2017-Aug-05 14:29N 59°55' E 030°14'0 0.0
2017-Aug-05 13:59N 59°55' E 030°14'0 0.0
2017-Aug-05 13:29N 59°55' E 030°14'0 0.0
2017-Aug-05 12:59N 59°55' E 030°14'0 0.0
2017-Aug-05 12:29N 59°55' E 030°14'0 0.0
2017-Aug-05 11:59N 59°55' E 030°14'0 0.0
2017-Aug-05 11:29N 59°55' E 030°14'0 0.0
2017-Aug-05 10:59N 59°55' E 030°14'0 0.0
2017-Aug-05 10:29N 59°55' E 030°14'0 0.0
2017-Aug-05 09:59N 59°55' E 030°14'0 0.0
2017-Aug-05 09:29N 59°55' E 030°14'0 0.0
2017-Aug-05 08:59N 59°55' E 030°14'0 0.0
2017-Aug-05 08:26N 59°55' E 030°14'0 0.0
2017-Aug-05 08:00N 59°55' E 030°14'0 0.0
2017-Aug-05 07:30N 59°55' E 030°14'0 0.0
2017-Aug-05 06:57N 59°55' E 030°14'0 0.0
2017-Aug-05 06:30N 59°55' E 030°14'0 0.0
2017-Aug-05 06:00N 59°55' E 030°14'0 0.0
2017-Aug-05 05:30N 59°55' E 030°14'0 0.0
2017-Aug-05 04:57N 59°55' E 030°14'0 0.0
2017-Aug-05 04:30N 59°55' E 030°14'0 0.0
2017-Aug-05 04:00N 59°55' E 030°14'0 0.0
2017-Aug-05 03:30N 59°55' E 030°14'0 0.0
2017-Aug-05 02:57N 59°55' E 030°14'0 0.0
2017-Aug-05 02:27N 59°55' E 030°14'0 0.0
2017-Aug-05 02:00N 59°55' E 030°14'0 0.0
2017-Aug-05 01:30N 59°55' E 030°14'0 0.0
2017-Aug-05 00:57N 59°55' E 030°14'0 0.0
2017-Aug-05 00:30N 59°55' E 030°14'0 0.0
2017-Aug-04 23:57N 59°55' E 030°14'0 0.0
2017-Aug-04 23:27N 59°55' E 030°14'0 0.0
2017-Aug-04 23:00N 59°55' E 030°14'0 0.0
2017-Aug-04 22:30N 59°55' E 030°14'0 0.0
2017-Aug-04 21:57N 59°55' E 030°14'0 0.0
2017-Aug-04 21:30N 59°55' E 030°14'0 0.0
2017-Aug-04 21:00N 59°55' E 030°14'0 0.0
2017-Aug-04 20:27N 59°55' E 030°14'0 0.0
2017-Aug-04 20:00N 59°55' E 030°14'0 0.0
2017-Aug-04 19:30N 59°55' E 030°14'0 0.0
2017-Aug-04 18:57N 59°55' E 030°14'0 0.0
2017-Aug-04 18:27N 59°55' E 030°14'0 0.0
2017-Aug-04 17:57N 59°55' E 030°14'0 0.0
2017-Aug-04 17:30N 59°55' E 030°14'0 0.0
2017-Aug-04 16:57N 59°55' E 030°14'0 0.0
2017-Aug-04 16:27N 59°55' E 030°14'0 0.0
2017-Aug-04 15:57N 59°55' E 030°14'0 0.0
2017-Aug-04 15:24N 59°55' E 030°14'0 0.0
2017-Aug-04 15:00N 59°55' E 030°14'0 0.0
2017-Aug-04 14:00N 59°55' E 030°14'0 0.0
2017-Aug-04 13:30N 59°55' E 030°14'0 0.0
2017-Aug-04 12:54N 59°55' E 030°14'0 0.0
2017-Aug-04 12:30N 59°55' E 030°14'0 0.0
2017-Aug-04 12:00N 59°55' E 030°14'0 0.0
2017-Aug-04 11:30N 59°55' E 030°14'0 0.0
2017-Aug-04 11:00N 59°55' E 030°14'0 0.0
2017-Aug-04 10:27N 59°55' E 030°14'0 0.0
2017-Aug-04 09:57N 59°55' E 030°14'0 0.0
2017-Aug-04 09:30N 59°55' E 030°14'0 0.0
2017-Aug-04 08:57N 59°55' E 030°14'0 0.0
2017-Aug-04 08:27N 59°55' E 030°14'0 0.0
2017-Aug-04 08:00N 59°55' E 030°14'0 0.0
2017-Aug-04 07:24N 59°55' E 030°14'0 0.0
2017-Aug-04 07:00N 59°55' E 030°14'0 0.0
2017-Aug-04 06:27N 59°55' E 030°14'0 0.0
2017-Aug-04 05:57N 59°55' E 030°14'0 0.0
2017-Aug-04 05:30N 59°55' E 030°14'0 0.0
2017-Aug-04 05:00N 59°55' E 030°14'0 0.0
2017-Aug-04 04:27N 59°55' E 030°14'0 0.0
2017-Aug-04 04:00N 59°55' E 030°14'0 0.0
2017-Aug-04 03:30N 59°55' E 030°14'0 0.0
2017-Aug-04 02:57N 59°55' E 030°14'0 0.0
2017-Aug-04 02:30N 59°55' E 030°14'0 0.0
2017-Aug-04 02:00N 59°55' E 030°14'0 0.0
2017-Aug-04 01:30N 59°55' E 030°14'0 0.0
2017-Aug-04 00:57N 59°55' E 030°14'0 0.0
2017-Aug-04 00:30N 59°55' E 030°14'0 0.0
2017-Aug-04 00:00N 59°55' E 030°14'0 0.0
2017-Aug-03 23:30N 59°55' E 030°14'0 0.0
2017-Aug-03 23:00N 59°55' E 030°14'0 0.0
2017-Aug-03 22:30N 59°55' E 030°14'0 0.0
2017-Aug-03 22:00N 59°55' E 030°14'0 0.0
2017-Aug-03 21:27N 59°55' E 030°14'0 0.0
2017-Aug-03 20:59N 59°55' E 030°14'0 0.0
2017-Aug-03 20:29N 59°55' E 030°14'0 0.0
2017-Aug-03 19:59N 59°55' E 030°14'0 0.0
2017-Aug-03 19:30N 59°55' E 030°14'0 0.0
2017-Aug-03 19:00N 59°55' E 030°14'0 0.0
2017-Aug-03 18:30N 59°55' E 030°14'0 0.0
2017-Aug-03 18:00N 59°55' E 030°14'0 0.0
2017-Aug-03 17:30N 59°55' E 030°14'0 0.0
2017-Aug-03 17:00N 59°55' E 030°14'0 0.0
2017-Aug-03 16:29N 59°55' E 030°14'0 0.0
2017-Aug-03 15:57N 59°55' E 030°14'0 0.0
2017-Aug-03 15:30N 59°55' E 030°14'0 0.0
2017-Aug-03 15:00N 59°55' E 030°14'0 0.0
2017-Aug-03 14:00N 59°55' E 030°14'0 0.0
2017-Aug-03 13:30N 59°55' E 030°14'0 0.0
2017-Aug-03 13:00N 59°55' E 030°14'0 0.0
2017-Aug-03 12:29N 59°55' E 030°14'0 0.0
2017-Aug-03 11:59N 59°55' E 030°14'0 0.0
2017-Aug-03 11:27N 59°55' E 030°14'0 0.0
2017-Aug-03 10:57N 59°55' E 030°14'0 0.0
2017-Aug-03 10:30N 59°55' E 030°14'0 0.0
2017-Aug-03 10:00N 59°55' E 030°14'0 0.0
2017-Aug-03 09:29N 59°55' E 030°14'0 0.0
2017-Aug-03 09:00N 59°55' E 030°14'0 0.0
2017-Aug-03 08:30N 59°55' E 030°14'0 0.0
2017-Aug-03 08:00N 59°55' E 030°14'0 0.0
2017-Aug-03 07:29N 59°55' E 030°14'0 0.0
2017-Aug-03 06:59N 59°55' E 030°14'0 0.0
2017-Aug-03 06:27N 59°55' E 030°14'0 0.0
2017-Aug-03 05:57N 59°55' E 030°14'0 0.0
2017-Aug-03 05:29N 59°55' E 030°14'0 0.0
2017-Aug-03 04:59N 59°55' E 030°14'0 0.0
2017-Aug-03 04:29N 59°55' E 030°14'0 0.0
2017-Aug-03 03:57N 59°55' E 030°14'0 0.0
2017-Aug-03 03:29N 59°55' E 030°14'0 0.0
2017-Aug-03 02:59N 59°55' E 030°14'0 0.0
2017-Aug-03 02:29N 59°55' E 030°14'0 0.0
2017-Aug-03 02:00N 59°55' E 030°14'0 0.0
2017-Aug-03 01:29N 59°55' E 030°14'0 0.0
2017-Aug-03 00:59N 59°55' E 030°14'0 0.0
2017-Aug-03 00:30N 59°55' E 030°14'0 0.0
2017-Aug-03 00:00N 59°55' E 030°14'0 0.0
2017-Aug-02 23:30N 59°55' E 030°14'0 0.0
2017-Aug-02 23:00N 59°55' E 030°14'0 0.0
2017-Aug-02 22:30N 59°55' E 030°14'0 0.0
2017-Aug-02 22:00N 59°55' E 030°14'0 0.0
2017-Aug-02 21:30N 59°55' E 030°14'0 0.6
2017-Aug-02 20:59N 59°55' E 030°13'0 0.2
2017-Aug-02 20:29N 59°54' E 030°13'0 0.0
2017-Aug-02 19:59N 59°54' E 030°13'0 0.0
2017-Aug-02 19:29N 59°54' E 030°13'0 0.0
2017-Aug-02 18:59N 59°54' E 030°13'0 0.0
2017-Aug-02 18:29N 59°54' E 030°13'0 0.0
2017-Aug-02 17:59N 59°54' E 030°13'0 0.0
2017-Aug-02 17:29N 59°54' E 030°13'0 0.0
2017-Aug-02 16:59N 59°54' E 030°13'0 0.0
2017-Aug-02 16:29N 59°54' E 030°13'0 0.0
2017-Aug-02 15:59N 59°54' E 030°13'0 0.0
2017-Aug-02 15:29N 59°54' E 030°13'0 0.0
2017-Aug-02 14:59N 59°54' E 030°13'0 0.0
2017-Aug-02 13:29N 59°54' E 030°13'0 0.0
2017-Aug-02 12:59N 59°54' E 030°13'0 0.0
2017-Aug-02 12:29N 59°54' E 030°13'0 0.0
2017-Aug-02 11:59N 59°54' E 030°13'0 0.0
2017-Aug-02 11:29N 59°54' E 030°13'0 0.0
2017-Aug-02 10:59N 59°54' E 030°13'0 0.0
2017-Aug-02 10:29N 59°54' E 030°13'0 0.0
2017-Aug-02 09:59N 59°54' E 030°13'0 0.0
2017-Aug-02 09:29N 59°54' E 030°13'0 0.0
2017-Aug-02 08:59N 59°54' E 030°13'0 0.0
2017-Aug-02 08:29N 59°54' E 030°13'0 0.0
2017-Aug-02 07:59N 59°54' E 030°13'0 0.0
2017-Aug-02 07:29N 59°54' E 030°13'0 0.0
2017-Aug-02 06:59N 59°54' E 030°13'0 0.0
2017-Aug-02 06:29N 59°54' E 030°13'0 0.0
2017-Aug-02 05:59N 59°54' E 030°13'  

Dump ship's entire track history